Time;durP1;ratioP1;P1;durP2;ratioP2;P2;SDS_P1;SDS_P2;PMS_P1;PMS_P2;Temp;Humidity;BMP_temperature;BMP_pressure;BME280_temperature;BME280_humidity;BME280_pressure;Samples;Min_cycle;Max_cycle;Signal;HPM_P1;HPM_P2
2021/05/13 05:30:26;;;;;;;2.77;2.05;;;;;;;13.43;52.00;99102.74;1792284;76;949459;-81
2021/05/13 05:32:53;;;;;;;5.50;2.10;;;;;;;13.58;51.76;99093.51;1810386;78;25701;-79
2021/05/13 05:35:20;;;;;;;3.25;1.90;;;;;;;13.68;51.45;99097.00;1811295;77;26203;-78
2021/05/13 05:37:46;;;;;;;1.92;1.77;;;;;;;13.78;51.16;99086.91;1819692;78;25722;-79
2021/05/13 05:40:16;;;;;;;3.05;2.12;;;;;;;13.86;51.01;99089.20;1810569;78;28228;-80
2021/05/13 05:42:42;;;;;;;5.50;2.27;;;;;;;13.98;51.10;99091.75;1785160;78;25787;-79
2021/05/13 05:45:10;;;;;;;6.37;2.35;;;;;;;14.14;50.99;99089.50;1808813;78;25660;-80
2021/05/13 05:47:37;;;;;;;5.67;1.92;;;;;;;14.29;50.40;99093.25;1810188;78;26034;-78
2021/05/13 05:50:06;;;;;;;3.37;2.05;;;;;;;14.39;49.85;99095.36;1805377;78;26452;-80
2021/05/13 05:52:32;;;;;;;5.75;2.20;;;;;;;14.48;49.88;99097.84;1812056;77;27458;-80
2021/05/13 05:54:59;;;;;;;3.85;2.12;;;;;;;14.62;50.01;99097.30;1805849;78;25730;-84
2021/05/13 05:57:26;;;;;;;4.03;2.35;;;;;;;14.80;49.67;99093.50;1800931;78;25794;-82
2021/05/13 05:59:52;;;;;;;8.05;2.72;;;;;;;14.97;49.46;99097.64;1811991;77;25693;-82
2021/05/13 06:02:18;;;;;;;4.62;2.55;;;;;;;15.15;49.45;99093.20;1757808;78;25440;-59
2021/05/13 06:04:45;;;;;;;4.95;2.20;;;;;;;15.39;49.27;99084.36;1808630;78;27555;-59
2021/05/13 06:07:12;;;;;;;3.83;2.12;;;;;;;15.61;48.82;99084.03;1813441;78;25769;-59
2021/05/13 06:09:39;;;;;;;6.22;2.52;;;;;;;15.84;48.20;99081.98;1814309;78;26184;-59
2021/05/13 06:12:07;;;;;;;3.83;1.90;;;;;;;16.05;47.85;99089.59;1813089;78;25675;-59
2021/05/13 06:14:33;;;;;;;5.37;2.10;;;;;;;16.22;47.50;99084.09;1813319;78;25833;-59
2021/05/13 06:17:00;;;;;;;1.92;1.75;;;;;;;16.41;47.34;99085.84;1807065;77;27704;-59
2021/05/13 06:19:26;;;;;;;5.28;2.00;;;;;;;16.59;46.51;99083.23;1815550;78;25435;-59
2021/05/13 06:21:53;;;;;;;2.42;1.82;;;;;;;16.73;46.10;99081.77;1807548;78;25616;-59
2021/05/13 06:24:19;;;;;;;9.15;2.47;;;;;;;16.89;45.80;99073.31;1807924;78;25908;-59
2021/05/13 06:27:02;;;;;;;3.80;1.70;;;;;;;17.03;45.07;99077.50;1807939;78;25407;-59
2021/05/13 06:29:29;;;;;;;10.40;3.45;;;;;;;17.14;45.28;99081.06;1774236;78;28988;-59
2021/05/13 06:31:57;;;;;;;9.38;2.67;;;;;;;17.34;45.15;99084.28;1809018;78;25666;-59
2021/05/13 06:34:24;;;;;;;3.85;2.40;;;;;;;17.54;44.87;99087.49;1810326;78;25774;-59
2021/05/13 06:36:53;;;;;;;3.80;1.87;;;;;;;17.63;44.54;99072.69;1810049;78;25774;-59
2021/05/13 06:39:20;;;;;;;4.40;1.85;;;;;;;17.79;44.10;99070.36;1812559;78;25647;-59
2021/05/13 06:41:46;;;;;;;3.83;2.08;;;;;;;18.02;43.60;99072.02;1807524;78;27566;-58
2021/05/13 06:44:13;;;;;;;4.28;1.77;;;;;;;18.28;42.84;99068.89;1813453;78;25940;-58
2021/05/13 06:46:39;;;;;;;4.87;2.05;;;;;;;18.47;43.04;99057.36;1815246;78;25650;-58
2021/05/13 06:49:08;;;;;;;3.05;1.50;;;;;;;18.80;43.02;99058.13;1818281;78;25790;-59
2021/05/13 06:51:34;;;;;;;3.72;1.50;;;;;;;19.09;42.00;99052.59;1813152;78;25876;-59
2021/05/13 06:54:00;;;;;;;4.03;2.17;;;;;;;19.38;40.82;99057.38;1810379;77;27673;-59
2021/05/13 06:56:27;;;;;;;1.92;1.30;;;;;;;19.67;40.79;99053.89;1812458;78;25631;-59
2021/05/13 06:58:54;;;;;;;3.12;1.45;;;;;;;20.02;39.53;99049.38;1809620;78;25747;-59
2021/05/13 07:01:22;;;;;;;4.55;1.60;;;;;;;20.19;38.73;99055.92;1811181;78;25808;-59
2021/05/13 07:03:49;;;;;;;7.20;2.20;;;;;;;20.34;38.35;99050.50;1813461;77;25722;-59
2021/05/13 07:06:15;;;;;;;6.08;1.42;;;;;;;20.56;38.29;99047.57;1820288;78;27471;-83
2021/05/13 07:08:42;;;;;;;1.50;1.40;;;;;;;20.82;38.21;99041.27;1811713;78;25818;-81
2021/05/13 07:11:09;;;;;;;6.17;1.40;;;;;;;21.06;37.03;99047.67;1813806;78;25708;-83
2021/05/13 07:13:36;;;;;;;3.72;1.40;;;;;;;21.24;37.20;99045.49;1815537;77;27834;-83
2021/05/13 07:16:04;;;;;;;3.17;1.35;;;;;;;21.42;36.39;99045.88;1820016;78;25706;-82
2021/05/13 07:18:30;;;;;;;2.30;1.45;;;;;;;21.53;36.37;99041.03;1774578;79;27433;-79
2021/05/13 07:20:57;;;;;;;5.08;1.52;;;;;;;21.73;35.89;99036.26;1782193;78;25703;-84
2021/05/13 07:23:25;;;;;;;2.85;1.22;;;;;;;21.84;35.63;99043.74;1773287;79;25677;-83
2021/05/13 07:25:52;;;;;;;1.98;1.30;;;;;;;22.02;35.36;99040.73;1736919;81;25931;-81
2021/05/13 07:28:19;;;;;;;4.47;2.10;;;;;;;22.11;33.88;99035.47;1780194;80;25511;-83
2021/05/13 07:30:46;;;;;;;7.03;1.22;;;;;;;22.17;34.18;99035.79;1769825;80;27670;-83
2021/05/13 07:33:12;;;;;;;2.52;1.40;;;;;;;22.33;33.78;99026.89;1780260;79;25968;-82
2021/05/13 07:35:39;;;;;;;3.75;1.27;;;;;;;22.47;33.74;99016.22;1790174;78;25810;-82
2021/05/13 07:38:06;;;;;;;1.27;1.17;;;;;;;22.55;33.54;99013.52;1754907;80;25371;-83
2021/05/13 07:40:33;;;;;;;1.92;1.27;;;;;;;22.73;33.29;99016.73;1757136;80;25625;-82
2021/05/13 07:42:59;;;;;;;2.65;1.10;;;;;;;22.93;33.89;99015.37;1774705;78;27550;-82
2021/05/13 07:45:26;;;;;;;3.98;1.60;;;;;;;23.08;32.18;99008.97;1775421;79;25891;-82
2021/05/13 07:47:55;;;;;;;1.27;0.98;;;;;;;23.15;32.08;99008.66;1777634;79;25592;-58
2021/05/13 07:50:24;;;;;;;3.95;2.08;;;;;;;23.12;32.75;99006.94;1779880;79;25622;-59
2021/05/13 07:52:51;;;;;;;6.47;1.45;;;;;;;23.37;32.50;99003.47;1768739;79;26845;-59
2021/05/13 07:55:18;;;;;;;2.60;1.20;;;;;;;23.56;32.27;99001.25;1777496;79;27538;-58
2021/05/13 07:57:47;;;;;;;1.40;1.22;;;;;;;23.78;32.04;99007.67;1781077;79;25612;-58
2021/05/13 08:00:15;;;;;;;2.83;1.13;;;;;;;24.00;31.59;98999.69;1778404;79;25796;-59
2021/05/13 08:02:42;;;;;;;2.20;1.10;;;;;;;24.16;30.41;98995.55;1768068;79;25680;-58
2021/05/13 08:05:10;;;;;;;3.65;1.12;;;;;;;24.31;30.23;98997.33;1742943;81;25706;-57
2021/05/13 08:07:37;;;;;;;4.80;1.30;;;;;;;24.41;29.85;99000.41;1713869;80;28233;-58
2021/05/13 08:10:06;;;;;;;3.02;1.07;;;;;;;24.44;29.10;98996.02;1754773;79;25962;-58
2021/05/13 08:12:33;;;;;;;4.10;1.30;;;;;;;24.33;28.00;98993.55;1717119;81;29996;-59
2021/05/13 08:14:59;;;;;;;3.05;1.40;;;;;;;24.31;28.56;98986.89;1778638;79;26146;-58
2021/05/13 08:17:26;;;;;;;2.45;1.82;;;;;;;24.34;28.89;98992.31;1779236;79;25672;-58
2021/05/13 08:19:52;;;;;;;2.27;1.00;;;;;;;24.36;28.29;98981.60;1747746;79;27477;-59
2021/05/13 08:22:19;;;;;;;4.72;1.35;;;;;;;24.37;29.12;98979.63;1790599;79;25728;-59
2021/05/13 08:24:45;;;;;;;1.80;1.25;;;;;;;24.67;29.11;98977.09;1792278;79;25781;-59
2021/05/13 08:27:12;;;;;;;2.42;1.35;;;;;;;24.85;28.46;98982.10;1781029;79;25755;-58
2021/05/13 08:29:38;;;;;;;2.90;1.30;;;;;;;24.85;28.25;98977.19;1778174;79;25703;-59
2021/05/13 08:32:06;;;;;;;2.00;1.35;;;;;;;24.93;28.34;98977.16;1778920;79;27791;-59
2021/05/13 08:34:35;;;;;;;3.92;1.10;;;;;;;25.07;27.93;98982.27;1778964;79;25781;-59
2021/05/13 08:37:02;;;;;;;1.67;1.25;;;;;;;25.25;27.58;98973.45;1777708;80;32375;-60
2021/05/13 08:39:28;;;;;;;2.25;1.30;;;;;;;25.46;26.95;98974.81;1746281;79;25912;-60
2021/05/13 08:41:55;;;;;;;2.55;1.10;;;;;;;25.51;26.75;98986.72;1781587;79;26286;-59
2021/05/13 08:44:22;;;;;;;3.37;1.05;;;;;;;25.61;27.20;98972.38;1749358;80;27512;-59
2021/05/13 08:46:50;;;;;;;2.92;1.12;;;;;;;25.74;27.18;98975.13;1766163;80;25793;-59
2021/05/13 08:49:16;;;;;;;3.55;1.50;;;;;;;25.85;26.73;98974.80;1758070;80;25904;-59
2021/05/13 08:51:43;;;;;;;2.52;1.17;;;;;;;25.86;26.28;98974.36;1784370;78;25705;-59
2021/05/13 08:54:11;;;;;;;4.55;1.10;;;;;;;25.83;26.29;98968.91;1795955;79;25737;-59
2021/05/13 08:56:38;;;;;;;1.75;0.78;;;;;;;25.89;26.00;98964.37;1749017;80;27548;-59
2021/05/13 08:59:05;;;;;;;3.33;1.15;;;;;;;25.65;25.23;98957.04;1743317;79;25906;-59
2021/05/13 09:01:33;;;;;;;2.27;1.40;;;;;;;25.43;25.46;98958.32;1778212;78;25787;-81
2021/05/13 09:04:01;;;;;;;2.70;1.17;;;;;;;25.43;26.04;98959.70;1783775;78;25640;-80
2021/05/13 09:06:41;;;;;;;5.83;1.20;;;;;;;25.34;26.32;98963.14;1783274;78;25909;-77
2021/05/13 09:09:14;;;;;;;9.58;4.37;;;;;;;25.47;26.59;98957.00;1770058;78;27607;-82
2021/05/13 09:11:56;;;;;;;6.58;1.72;;;;;;;25.60;26.11;98962.52;1776898;79;26281;-78
2021/05/13 09:14:29;;;;;;;1.98;1.40;;;;;;;25.73;26.14;98956.36;1780894;79;26073;-78
2021/05/13 09:16:58;;;;;;;2.15;1.10;;;;;;;25.71;25.74;98950.50;1776902;78;25752;-76
2021/05/13 09:19:35;;;;;;;;;;;;;;;25.61;26.42;98948.85;1771582;79;25390;-79
2021/05/13 09:22:09;;;;;;;1.62;1.05;;;;;;;25.86;26.56;98949.44;1780403;79;27887;-78
2021/05/13 09:25:04;;;;;;;3.87;1.00;;;;;;;26.01;26.33;98942.05;1790544;78;25805;-78
2021/05/13 09:27:49;;;;;;;4.00;1.12;;;;;;;26.25;26.28;98935.49;1743652;80;25918;-79
2021/05/13 09:30:24;;;;;;;3.77;1.50;;;;;;;26.27;25.30;98939.97;1789300;78;26174;-77
2021/05/13 09:32:58;;;;;;;4.22;1.07;;;;;;;25.95;25.39;98946.01;1777756;79;25686;-75
2021/05/13 09:35:32;;;;;;;5.58;1.55;;;;;;;26.09;26.22;98929.52;1780671;79;28218;-77
2021/05/13 09:38:07;;;;;;;3.72;1.15;;;;;;;26.34;24.90;98927.86;1786060;78;26310;-59
2021/05/13 09:40:53;;;;;;;4.03;1.62;;;;;;;26.35;25.04;98936.34;1737817;80;25708;-59
2021/05/13 09:43:23;;;;;;;2.75;1.05;;;;;;;26.32;24.96;98928.31;1782253;78;25942;-58
2021/05/13 09:45:54;;;;;;;2.35;1.20;;;;;;;26.18;24.39;98927.44;1757929;81;25687;-59
2021/05/13 09:48:41;;;;;;;2.08;1.05;;;;;;;26.02;24.65;98928.38;1779937;78;26865;-58
2021/05/13 09:51:31;;;;;;;5.60;2.30;;;;;;;26.04;23.75;98920.39;1774379;78;25771;-59
2021/05/13 09:54:16;;;;;;;1.95;1.37;;;;;;;25.98;24.90;98927.09;1757962;80;25708;-58
2021/05/13 09:56:47;;;;;;;4.55;1.22;;;;;;;26.17;24.50;98923.09;1775634;79;26042;-60
2021/05/13 09:59:33;;;;;;;2.17;0.90;;;;;;;26.05;24.08;98914.41;1768937;79;25698;-58
2021/05/13 10:02:08;;;;;;;3.00;1.02;;;;;;;26.18;24.60;98909.42;1771198;80;28224;-59
2021/05/13 10:04:34;;;;;;;2.25;1.02;;;;;;;26.40;24.46;98913.59;1772553;79;25557;-58
2021/05/13 10:07:01;;;;;;;2.55;1.17;;;;;;;26.47;24.42;98904.40;1783598;79;25622;-58
2021/05/13 10:09:28;;;;;;;2.83;1.00;;;;;;;26.32;23.69;98898.44;1771865;79;25704;-58
2021/05/13 10:12:00;;;;;;;2.95;0.88;;;;;;;25.97;23.80;98897.09;1772951;79;25805;-58
2021/05/13 10:14:28;;;;;;;2.05;1.17;;;;;;;25.96;24.96;98892.14;1775790;80;28155;-60
2021/05/13 10:17:03;;;;;;;3.25;1.45;;;;;;;26.20;24.86;98894.50;1776289;79;27451;-59
2021/05/13 10:19:38;;;;;;;0.93;0.93;;;;;;;26.48;24.68;98889.95;1777735;79;25862;-74
2021/05/13 10:22:06;;;;;;;2.55;1.62;;;;;;;26.67;24.24;98885.31;1778375;79;25860;-76
2021/05/13 10:24:32;;;;;;;3.63;1.33;;;;;;;26.54;23.51;98883.20;1778287;79;27032;-74
2021/05/13 10:27:02;;;;;;;4.53;1.22;;;;;;;26.20;23.86;98880.64;1779009;79;29042;-75
2021/05/13 10:29:34;;;;;;;3.77;1.05;;;;;;;26.11;24.15;98890.28;1744377;80;25774;-80
2021/05/13 10:32:16;;;;;;;2.65;1.17;;;;;;;26.24;24.57;98879.92;1778437;79;25782;-83
2021/05/13 10:34:56;;;;;;;8.15;1.30;;;;;;;26.27;24.07;98888.70;1772451;79;26110;-74
2021/05/13 10:37:41;;;;;;;6.90;1.37;;;;;;;26.12;24.42;98877.95;1772402;79;26155;-76
2021/05/13 10:43:05;;;;;;;6.37;1.17;;;;;;;26.87;24.94;98878.63;1779056;79;26608;-58
2021/05/13 10:45:42;;;;;;;5.40;1.45;;;;;;;27.07;23.99;98866.55;1784117;79;25781;-58
2021/05/13 10:48:23;;;;;;;4.12;1.27;;;;;;;27.23;23.27;98871.09;1715743;82;26386;-58
2021/05/13 10:51:07;;;;;;;1.85;1.00;;;;;;;27.09;23.34;98868.27;1726031;81;25819;-58
2021/05/13 10:53:48;;;;;;;3.55;1.05;;;;;;;27.02;23.71;98868.53;1672745;83;27592;-60
2021/05/13 10:56:29;;;;;;;6.55;1.62;;;;;;;27.31;23.90;98863.27;1673276;84;25896;-75
2021/05/13 10:59:15;;;;;;;2.20;1.00;;;;;;;27.49;22.77;98864.70;1667314;84;25914;-75
2021/05/13 11:01:49;;;;;;;1.70;1.00;;;;;;;27.48;22.73;98854.84;1580874;90;25897;-77
2021/05/13 11:04:29;;;;;;;3.72;1.22;;;;;;;27.49;22.70;98845.89;1571461;90;25759;-74
2021/05/13 11:07:20;;;;;;;2.17;1.30;;;;;;;27.45;22.70;98859.13;1586205;90;27264;-75
2021/05/13 11:10:04;;;;;;;4.20;1.42;;;;;;;27.47;22.73;98851.91;1575269;89;25895;-81
2021/05/13 11:12:42;;;;;;;4.53;1.40;;;;;;;27.59;22.64;98857.17;1566087;89;26478;-74
2021/05/13 11:15:26;;;;;;;1.35;1.25;;;;;;;27.33;21.92;98851.88;1573623;89;25854;-75
2021/05/13 11:18:06;;;;;;;3.70;1.10;;;;;;;27.06;22.71;98851.77;1579022;90;26637;-77
2021/05/13 11:20:51;;;;;;;4.35;1.05;;;;;;;27.03;23.52;98842.34;1552107;90;25954;-72
2021/05/13 11:23:32;;;;;;;9.40;1.35;;;;;;;27.31;23.65;98827.97;1547354;90;26539;-74
2021/05/13 11:26:11;;;;;;;2.22;1.20;;;;;;;27.44;22.68;98837.55;1498024;93;25984;-74
2021/05/13 11:28:51;;;;;;;1.22;1.02;;;;;;;27.33;22.31;98841.39;1503927;93;25913;-73
2021/05/13 11:31:20;;;;;;;4.62;1.32;;;;;;;27.33;22.66;98842.78;1513769;94;25908;-57
2021/05/13 11:34:00;;;;;;;2.33;1.00;;;;;;;27.13;22.33;98832.05;1525580;92;27679;-57
2021/05/13 11:36:37;;;;;;;4.67;1.12;;;;;;;27.02;22.80;98826.91;1510970;93;25942;-59
2021/05/13 11:39:12;;;;;;;2.15;1.20;;;;;;;27.18;23.07;98831.45;1564513;86;25824;-58
2021/05/13 11:41:41;;;;;;;4.50;1.20;;;;;;;27.34;23.20;98820.09;1609948;87;25804;-59
2021/05/13 11:44:07;;;;;;;2.62;1.10;;;;;;;27.40;22.89;98821.67;1611563;88;25735;-59
2021/05/13 11:46:36;;;;;;;5.28;1.40;;;;;;;27.58;22.93;98819.52;1609317;88;27523;-59
2021/05/13 11:49:04;;;;;;;;;;;;;;;27.78;22.64;98820.47;1607155;88;26128;-58
2021/05/13 11:51:34;;;;;;;1.42;1.10;;;;;;;27.83;21.80;98816.31;1605734;87;25784;-58
2021/05/13 11:54:09;;;;;;;3.60;1.22;;;;;;;27.46;21.65;98811.48;1600736;88;25720;-58
2021/05/13 11:56:38;;;;;;;5.75;1.22;;;;;;;27.06;22.08;98813.69;1613102;87;25894;-75
2021/05/13 11:59:11;;;;;;;1.82;1.10;;;;;;;27.05;22.51;98817.67;1636503;85;27512;-79
2021/05/13 12:01:46;;;;;;;2.35;1.10;;;;;;;26.84;22.10;98810.98;1652882;85;25950;-75
2021/05/13 12:04:15;;;;;;;1.70;1.10;;;;;;;26.59;22.33;98818.22;1737542;80;25802;-78
2021/05/13 12:07:02;;;;;;;1.85;1.45;;;;;;;26.72;22.84;98804.93;1777831;79;25913;-77
2021/05/13 12:09:36;;;;;;;2.45;1.37;;;;;;;26.92;22.78;98805.32;1787165;79;25674;-79
2021/05/13 12:12:04;;;;;;;4.08;1.20;;;;;;;26.79;21.93;98809.57;1771433;79;27702;-80
2021/05/13 12:14:33;;;;;;;5.17;1.00;;;;;;;26.62;22.62;98795.17;1752912;80;25705;-75
2021/05/13 12:17:03;;;;;;;1.32;0.70;;;;;;;26.84;22.87;98792.33;1782953;79;25733;-73
2021/05/13 12:19:33;;;;;;;9.15;1.00;;;;;;;27.14;22.79;98791.95;1775448;79;26137;-74
2021/05/13 12:22:04;;;;;;;5.00;0.88;;;;;;;27.40;22.13;98792.52;1778653;79;25659;-76
2021/05/13 12:24:37;;;;;;;2.35;1.10;;;;;;;27.42;21.68;98782.34;1777123;79;28257;-78
2021/05/13 12:27:05;;;;;;;2.02;1.27;;;;;;;27.48;21.36;98784.05;1765821;79;25706;-75
2021/05/13 12:29:34;;;;;;;3.20;0.90;;;;;;;27.43;21.54;98786.05;1781421;79;25722;-77
2021/05/13 12:32:00;;;;;;;2.10;0.80;;;;;;;27.53;21.15;98786.22;1775217;79;25705;-77
2021/05/13 12:34:45;;;;;;;1.98;1.17;;;;;;;27.47;21.14;98777.56;1779374;78;25861;-73
2021/05/13 12:37:23;;;;;;;4.25;0.80;;;;;;;27.49;21.78;98780.65;1783489;78;27480;-75
2021/05/13 12:39:51;;;;;;;2.95;0.93;;;;;;;27.70;21.79;98771.41;1774783;79;26368;-76
2021/05/13 12:42:32;;;;;;;7.22;1.10;;;;;;;27.76;21.46;98768.16;1782368;78;25391;-82
2021/05/13 12:45:22;;;;;;;5.20;0.90;;;;;;;27.86;21.63;98765.38;1780137;78;25818;-58
2021/05/13 12:48:03;;;;;;;1.95;0.75;;;;;;;27.89;20.25;98763.84;1788035;79;25672;-57
2021/05/13 12:50:32;;;;;;;4.80;1.07;;;;;;;27.72;20.65;98763.98;1770444;79;27535;-58
2021/05/13 12:53:15;;;;;;;4.05;0.80;;;;;;;27.63;20.72;98762.60;1764236;77;26261;-57
2021/05/13 12:55:45;;;;;;;1.65;1.15;;;;;;;27.60;20.47;98755.19;1777036;79;26641;-58
2021/05/13 12:58:16;;;;;;;1.45;0.88;;;;;;;27.56;21.15;98765.83;1779423;79;26262;-58
2021/05/13 13:00:46;;;;;;;4.15;0.78;;;;;;;27.56;20.67;98759.52;1785223;78;25683;-58
2021/05/13 13:03:16;;;;;;;3.17;0.80;;;;;;;27.39;20.70;98746.55;1777680;79;27615;-59
2021/05/13 13:05:45;;;;;;;4.12;1.32;;;;;;;27.28;20.88;98740.66;1776851;79;25574;-59
2021/05/13 13:08:11;;;;;;;4.53;1.30;;;;;;;27.28;21.12;98756.72;1777081;79;25646;-59
2021/05/13 13:10:45;;;;;;;1.77;1.00;;;;;;;27.25;20.88;98751.30;1781498;79;25794;-58
2021/05/13 13:13:17;;;;;;;7.30;1.45;;;;;;;27.11;21.14;98742.33;1778653;79;25711;-59
2021/05/13 13:15:57;;;;;;;5.22;1.00;;;;;;;26.99;21.41;98734.28;1780238;78;27475;-59
2021/05/13 13:18:24;;;;;;;2.52;1.10;;;;;;;27.06;21.62;98732.46;1782586;79;25855;-59
2021/05/13 13:20:52;;;;;;;1.65;0.88;;;;;;;27.13;21.78;98732.92;1762380;79;25748;-59
2021/05/13 13:23:29;;;;;;;3.45;0.80;;;;;;;27.17;20.79;98729.99;1762985;79;25656;-59
2021/05/13 13:26:03;;;;;;;1.52;0.90;;;;;;;27.06;20.65;98738.77;1773812;78;26004;-58
2021/05/13 13:28:29;;;;;;;3.50;1.60;;;;;;;26.94;20.87;98741.83;1741968;79;27452;-58
2021/05/13 13:31:01;;;;;;;4.45;1.45;;;;;;;26.84;20.64;98742.41;1745831;80;25778;-59
2021/05/13 13:33:29;;;;;;;4.97;1.45;;;;;;;26.83;20.69;98747.02;1742986;79;25709;-58
2021/05/13 13:35:58;;;;;;;1.73;1.03;;;;;;;26.75;20.80;98740.22;1752942;80;25861;-59
2021/05/13 13:38:25;;;;;;;4.97;0.90;;;;;;;26.73;21.02;98744.86;1768860;79;25537;-58
2021/05/13 13:40:55;;;;;;;2.52;1.10;;;;;;;26.69;21.00;98736.52;1776250;79;27520;-58
2021/05/13 13:43:28;;;;;;;3.10;0.95;;;;;;;26.64;20.80;98740.02;1785639;78;25860;-58
2021/05/13 13:45:55;;;;;;;2.45;0.98;;;;;;;26.53;21.25;98743.81;1751402;80;25744;-58
2021/05/13 13:48:22;;;;;;;4.53;0.98;;;;;;;26.51;21.18;98742.72;1753354;80;25772;-58
2021/05/13 13:50:56;;;;;;;2.70;0.70;;;;;;;26.45;21.29;98739.15;1755287;81;25830;-58
2021/05/13 13:53:27;;;;;;;4.00;0.98;;;;;;;26.41;21.02;98729.45;1725549;81;27834;-59
2021/05/13 13:55:56;;;;;;;4.45;0.98;;;;;;;26.29;21.52;98735.24;1748352;81;25976;-58
2021/05/13 13:58:23;;;;;;;3.60;0.82;;;;;;;26.27;21.84;98728.77;1752460;81;25728;-58
2021/05/13 14:00:52;;;;;;;1.22;0.90;;;;;;;26.30;21.21;98731.23;1750107;80;26567;-58
2021/05/13 14:03:21;;;;;;;3.85;1.02;;;;;;;26.23;21.73;98725.34;1743638;81;25722;-59
2021/05/13 14:05:49;;;;;;;1.25;0.90;;;;;;;26.28;22.02;98727.52;1746891;81;27511;-59
2021/05/13 14:08:16;;;;;;;2.27;1.20;;;;;;;26.37;22.16;98728.80;1781489;78;25556;-58
2021/05/13 14:10:45;;;;;;;3.75;1.05;;;;;;;26.48;21.82;98727.78;1780564;78;25949;-59
2021/05/13 14:13:12;;;;;;;2.92;1.10;;;;;;;26.43;22.12;98719.44;1751786;80;25735;-58
2021/05/13 14:15:39;;;;;;;17.40;2.77;;;;;;;26.45;22.04;98723.14;1753978;80;25638;-58
2021/05/13 14:18:06;;;;;;;8.03;1.70;;;;;;;26.28;21.90;98718.44;1775715;79;27456;-58
2021/05/13 14:20:33;;;;;;;2.67;1.50;;;;;;;25.99;22.17;98719.52;1747882;81;25732;-58
2021/05/13 14:23:00;;;;;;;6.17;1.42;;;;;;;25.94;22.55;98710.38;1752351;81;25728;-58
2021/05/13 14:25:26;;;;;;;1.77;1.27;;;;;;;25.90;22.56;98715.28;1754654;81;25761;-58
2021/05/13 14:27:52;;;;;;;4.28;1.27;;;;;;;25.80;22.78;98703.37;1788549;78;25803;-58
2021/05/13 14:30:21;;;;;;;3.98;1.17;;;;;;;25.79;22.92;98712.13;1775825;79;27572;-80
2021/05/13 14:32:48;;;;;;;7.08;1.30;;;;;;;25.66;23.24;98719.09;1784079;79;35259;-74
2021/05/13 14:35:21;;;;;;;3.55;1.55;;;;;;;25.57;23.51;98711.50;1781809;79;25835;-77
2021/05/13 14:37:53;;;;;;;4.30;1.25;;;;;;;25.51;23.63;98705.01;1775746;79;25554;-75
2021/05/13 14:40:22;;;;;;;3.65;1.17;;;;;;;25.57;23.83;98706.58;1784818;79;25514;-76
2021/05/13 14:42:48;;;;;;;2.90;1.47;;;;;;;25.62;23.62;98702.61;1780870;79;27491;-76
2021/05/13 14:45:27;;;;;;;3.47;1.17;;;;;;;25.55;23.39;98701.49;1755262;80;25729;-75
2021/05/13 14:48:02;;;;;;;4.50;1.25;;;;;;;25.59;23.71;98693.85;1784926;79;25653;-75
2021/05/13 14:50:26;;;;;;;7.42;1.20;;;;;;;25.68;23.26;98703.59;1774013;79;25799;-74
2021/05/13 14:52:54;;;;;;;2.92;1.00;;;;;;;25.64;23.39;98697.42;1773175;79;25693;-74
2021/05/13 14:55:21;;;;;;;5.58;1.10;;;;;;;25.64;23.38;98696.63;1757420;79;27789;-75
2021/05/13 14:57:49;;;;;;;2.62;1.20;;;;;;;25.64;23.51;98693.86;1760699;79;25786;-75
2021/05/13 15:00:23;;;;;;;3.33;1.20;;;;;;;25.66;23.65;98690.03;1772242;80;25731;-74
2021/05/13 15:02:53;;;;;;;5.03;1.32;;;;;;;25.72;23.61;98695.92;1778961;78;25623;-73
2021/05/13 15:05:20;;;;;;;1.45;1.20;;;;;;;25.72;23.63;98686.23;1770594;79;25709;-75
2021/05/13 15:07:47;;;;;;;2.77;1.37;;;;;;;25.75;23.63;98692.11;1773077;79;28143;-77
2021/05/13 15:10:15;;;;;;;5.62;0.93;;;;;;;25.62;23.65;98694.31;1781024;80;25781;-77
2021/05/13 15:12:42;;;;;;;4.22;0.98;;;;;;;25.45;23.65;98692.34;1777425;78;25853;-74
2021/05/13 15:15:16;;;;;;;1.77;1.25;;;;;;;25.31;23.89;98697.00;1780950;78;26159;-74
2021/05/13 15:17:40;;;;;;;2.67;1.32;;;;;;;25.22;23.75;98686.60;1730066;81;25756;-72
2021/05/13 15:20:08;;;;;;;2.77;1.57;;;;;;;24.94;23.83;98689.70;1766223;79;28369;-74
2021/05/13 15:22:35;;;;;;;7.37;1.90;;;;;;;24.72;24.15;98689.05;1771141;78;25712;-73
2021/05/13 15:25:06;;;;;;;3.15;1.27;;;;;;;24.56;24.54;98684.39;1752004;81;25660;-73
2021/05/13 15:27:33;;;;;;;5.47;1.77;;;;;;;24.45;24.74;98684.53;1757957;80;25998;-76
2021/05/13 15:30:05;;;;;;;1.87;1.40;;;;;;;24.32;24.96;98681.78;1759423;81;25677;-75
2021/05/13 15:32:32;;;;;;;4.87;3.08;;;;;;;24.19;25.02;98679.77;1776198;78;27632;-73
2021/05/13 15:34:59;;;;;;;2.83;1.42;;;;;;;24.08;25.25;98683.48;1782040;78;25930;-74
2021/05/13 15:37:25;;;;;;;2.62;1.55;;;;;;;24.03;25.51;98684.02;1784490;79;25468;-74
2021/05/13 15:39:54;;;;;;;2.60;1.35;;;;;;;23.93;25.58;98682.34;1757571;80;26357;-74
2021/05/13 15:42:20;;;;;;;5.87;1.45;;;;;;;23.81;25.70;98684.63;1754820;81;25949;-74
2021/05/13 15:44:46;;;;;;;2.27;1.20;;;;;;;23.75;25.83;98678.09;1784623;78;28416;-74
2021/05/13 15:47:13;;;;;;;8.90;1.50;;;;;;;23.72;25.83;98681.72;1782978;78;25811;-73
2021/05/13 15:49:40;;;;;;;4.83;1.32;;;;;;;23.66;26.03;98675.17;1773161;78;25799;-77
2021/05/13 15:52:07;;;;;;;2.52;1.40;;;;;;;23.61;26.38;98682.61;1749658;80;26218;-77
2021/05/13 15:54:34;;;;;;;3.37;1.50;;;;;;;23.61;26.62;98672.95;1760561;80;25992;-58
2021/05/13 15:57:04;;;;;;;5.97;1.92;;;;;;;23.64;26.58;98677.61;1758743;80;27515;-58
2021/05/13 15:59:31;;;;;;;3.62;1.20;;;;;;;23.63;26.81;98681.56;1781277;78;25723;-58
2021/05/13 16:01:59;;;;;;;2.55;1.37;;;;;;;23.59;26.86;98674.77;1771827;80;25792;-58
2021/05/13 16:04:28;;;;;;;4.90;1.32;;;;;;;23.54;26.82;98673.16;1770330;79;27712;-58
2021/05/13 16:06:54;;;;;;;3.62;1.72;;;;;;;23.50;26.79;98673.27;1746014;79;25734;-59
2021/05/13 16:09:21;;;;;;;5.62;1.40;;;;;;;23.37;26.85;98664.92;1773176;79;29740;-58
2021/05/13 16:11:50;;;;;;;4.30;1.47;;;;;;;23.32;27.22;98672.34;1771964;79;25755;-60
2021/05/13 16:14:17;;;;;;;3.70;1.30;;;;;;;23.29;27.35;98659.42;1744386;80;26428;-61
2021/05/13 16:16:43;;;;;;;2.12;1.40;;;;;;;23.32;27.40;98665.45;1732854;81;25621;-60
2021/05/13 16:19:11;;;;;;;4.83;1.57;;;;;;;23.29;27.03;98661.59;1757565;80;25699;-59
2021/05/13 16:21:38;;;;;;;4.15;1.55;;;;;;;23.15;27.26;98662.57;1754349;81;28219;-60
2021/05/13 16:24:08;;;;;;;7.78;1.50;;;;;;;23.04;27.65;98664.20;1756423;80;27364;-60
2021/05/13 16:26:34;;;;;;;2.15;1.40;;;;;;;22.94;27.75;98664.64;1749709;81;25603;-60
2021/05/13 16:29:01;;;;;;;3.95;1.50;;;;;;;22.85;27.93;98665.84;1752310;80;25878;-60
2021/05/13 16:31:28;;;;;;;1.92;1.25;;;;;;;22.78;28.19;98664.03;1761425;80;26054;-60
2021/05/13 16:33:54;;;;;;;5.03;1.52;;;;;;;22.73;28.44;98662.59;1751646;81;27578;-60
2021/05/13 16:36:20;;;;;;;3.42;1.80;;;;;;;22.64;28.42;98663.78;1750554;80;25749;-84
2021/05/13 16:38:47;;;;;;;2.22;1.72;;;;;;;22.51;28.52;98666.46;1745391;81;25680;-76
2021/05/13 16:41:13;;;;;;;4.08;1.60;;;;;;;22.41;28.73;98666.69;1739293;81;25847;-84
2021/05/13 16:43:39;;;;;;;4.05;1.47;;;;;;;22.24;28.67;98666.66;1747951;80;26348;-81
2021/05/13 16:46:07;;;;;;;3.80;1.55;;;;;;;22.12;28.88;98675.58;1753795;81;27505;-74
2021/05/13 16:48:35;;;;;;;3.40;1.60;;;;;;;22.03;29.36;98672.62;1751402;81;25797;-71
2021/05/13 16:51:01;;;;;;;10.65;1.90;;;;;;;21.93;29.55;98674.39;1757402;81;25736;-73
2021/05/13 16:53:29;;;;;;;4.90;1.87;;;;;;;21.85;29.60;98679.28;1755211;81;25724;-71
2021/05/13 16:55:56;;;;;;;7.55;1.98;;;;;;;21.76;29.87;98675.72;1719453;81;25762;-67
2021/05/13 16:58:24;;;;;;;3.22;1.52;;;;;;;21.67;29.98;98675.50;1757002;80;27541;-71
2021/05/13 17:00:51;;;;;;;2.40;1.47;;;;;;;21.58;30.11;98673.92;1754438;81;25682;-65
2021/05/13 17:03:19;;;;;;;2.08;1.57;;;;;;;21.52;30.38;98671.47;1749494;80;25693;-72
2021/05/13 17:05:47;;;;;;;3.10;1.60;;;;;;;21.43;30.55;98680.25;1749310;81;25785;-73
2021/05/13 17:08:13;;;;;;;5.70;2.45;;;;;;;21.37;30.56;98681.96;1752174;80;25703;-73
2021/05/13 17:10:40;;;;;;;5.62;1.80;;;;;;;21.29;30.64;98678.55;1745166;81;27473;-83
2021/05/13 17:13:06;;;;;;;7.70;2.00;;;;;;;21.23;30.89;98676.09;1749338;81;26431;-78
2021/05/13 17:15:34;;;;;;;3.77;1.65;;;;;;;21.13;31.01;98676.48;1748371;80;25853;-73
2021/05/13 17:18:03;;;;;;;5.65;2.00;;;;;;;21.07;31.28;98679.53;1739470;81;26050;-72
2021/05/13 17:20:31;;;;;;;2.75;1.82;;;;;;;21.00;31.39;98678.28;1749703;81;26608;-74